Time;durP1;ratioP1;P1;durP2;ratioP2;P2;SDS_P1;SDS_P2;PMS_P1;PMS_P2;Temp;Humidity;BMP_temperature;BMP_pressure;BME280_temperature;BME280_humidity;BME280_pressure;Samples;Min_cycle;Max_cycle;Signal;HPM_P1;HPM_P2
2023/10/05 00:02:04;;;;;;;6.55;2.25;;;;;;;;;;5018304;28;20049;-76
2023/10/05 00:04:40;;;;;;;5.32;2.45;;;;;;;;;;5035512;28;20049;-76
2023/10/05 00:07:07;;;;;;;3.00;2.15;;;;;;;;;;5035443;28;20077;-76
2023/10/05 00:09:33;;;;;;;4.65;2.38;;;;;;;;;;5035337;28;20049;-76
2023/10/05 00:12:03;;;;;;;9.25;3.25;;;;;;;;;;5028371;28;20403;-76
2023/10/05 00:14:31;;;;;;;7.43;2.40;;;;;;;;;;5031734;28;20061;-76
2023/10/05 00:17:00;;;;;;;4.22;2.00;;;;;;;;;;5035235;28;20060;-76
2023/10/05 00:19:28;;;;;;;5.00;2.80;;;;;;;;;;5052583;28;20060;-76
2023/10/05 00:21:56;;;;;;;4.47;1.80;;;;;;;;;;5051279;28;20414;-76
2023/10/05 00:24:29;;;;;;;5.25;2.00;;;;;;;;;;5034540;28;20405;-76
2023/10/05 00:26:58;;;;;;;8.93;2.88;;;;;;;;;;5017522;28;20054;-76
2023/10/05 00:29:27;;;;;;;3.97;1.90;;;;;;;;;;5017619;28;20503;-76
2023/10/05 00:31:55;;;;;;;;;;;;;;;;;;5015568;28;20056;-76
2023/10/05 00:34:24;;;;;;;5.93;2.65;;;;;;;;;;5015380;28;19921;-76
2023/10/05 00:36:53;;;;;;;5.75;2.08;;;;;;;;;;5015530;28;20054;-76
2023/10/05 00:39:21;;;;;;;5.15;3.00;;;;;;;;;;5015258;28;20054;-76
2023/10/05 00:41:49;;;;;;;5.75;2.50;;;;;;;;;;5015942;28;20046;-76
2023/10/05 00:44:16;;;;;;;11.65;3.83;;;;;;;;;;5015609;28;20061;-76
2023/10/05 00:46:48;;;;;;;8.50;3.22;;;;;;;;;;5014431;28;20065;-77
2023/10/05 00:49:19;;;;;;;6.35;2.60;;;;;;;;;;5021572;28;20054;-76
2023/10/05 00:51:55;;;;;;;6.43;3.60;;;;;;;;;;5034939;28;20053;-76
2023/10/05 00:54:29;;;;;;;5.85;2.47;;;;;;;;;;5034140;28;20057;-77
2023/10/05 00:56:56;;;;;;;11.18;4.40;;;;;;;;;;5031270;28;20050;-77
2023/10/05 00:59:23;;;;;;;7.97;3.72;;;;;;;;;;5034406;28;20054;-77
2023/10/05 01:02:05;;;;;;;5.13;2.53;;;;;;;;;;5034561;28;20398;-76
2023/10/05 01:04:52;;;;;;;4.22;2.13;;;;;;;;;;5034433;28;20049;-76
2023/10/05 01:07:28;;;;;;;5.22;2.90;;;;;;;;;;5026121;28;20049;-77
2023/10/05 01:10:21;;;;;;;4.78;2.63;;;;;;;;;;5014223;28;20064;-77
2023/10/05 01:12:45;;;;;;;5.18;2.97;;;;;;;;;;5019511;28;20049;-76
2023/10/05 01:15:19;;;;;;;4.15;2.65;;;;;;;;;;5034127;28;20049;-77
2023/10/05 01:17:47;;;;;;;4.13;2.08;;;;;;;;;;5033114;28;20053;-77
2023/10/05 01:20:22;;;;;;;10.52;2.88;;;;;;;;;;5034213;28;20498;-77
2023/10/05 01:22:54;;;;;;;4.10;1.67;;;;;;;;;;5034169;28;20525;-76
2023/10/05 01:25:24;;;;;;;6.80;2.10;;;;;;;;;;5024829;28;20050;-76
2023/10/05 01:27:52;;;;;;;8.23;2.53;;;;;;;;;;5015106;28;20406;-76
2023/10/05 01:30:18;;;;;;;6.50;1.98;;;;;;;;;;5014521;28;20061;-77
2023/10/05 01:32:46;;;;;;;5.72;2.00;;;;;;;;;;5014026;28;20475;-76
2023/10/05 01:35:14;;;;;;;9.27;3.10;;;;;;;;;;5020779;28;20076;-77
2023/10/05 01:37:40;;;;;;;4.55;2.13;;;;;;;;;;5033917;28;20057;-76
2023/10/05 01:40:13;;;;;;;2.88;1.63;;;;;;;;;;5033858;28;20056;-76
2023/10/05 01:42:44;;;;;;;6.75;1.40;;;;;;;;;;5028325;28;20061;-77
2023/10/05 01:45:15;;;;;;;3.00;1.42;;;;;;;;;;5023501;28;20057;-76
2023/10/05 01:47:43;;;;;;;5.75;1.75;;;;;;;;;;5033598;28;20064;-77
2023/10/05 01:50:16;;;;;;;2.78;1.90;;;;;;;;;;5033380;28;20161;-76
2023/10/05 01:52:45;;;;;;;3.20;1.70;;;;;;;;;;5028168;28;20050;-77
2023/10/05 01:55:14;;;;;;;4.97;1.90;;;;;;;;;;5013285;28;20058;-77
2023/10/05 01:57:44;;;;;;;4.33;1.30;;;;;;;;;;5014103;28;20062;-77
2023/10/05 02:00:14;;;;;;;3.40;1.58;;;;;;;;;;5031823;28;20476;-77
2023/10/05 02:02:42;;;;;;;4.30;1.90;;;;;;;;;;5027954;28;20426;-76
2023/10/05 02:05:09;;;;;;;4.68;1.63;;;;;;;;;;5013063;28;20506;-76
2023/10/05 02:07:38;;;;;;;3.78;2.10;;;;;;;;;;5013619;28;20058;-76
2023/10/05 02:10:09;;;;;;;3.80;1.70;;;;;;;;;;5013526;28;20058;-76
2023/10/05 02:12:36;;;;;;;4.68;1.48;;;;;;;;;;5013966;28;20045;-76
2023/10/05 02:15:06;;;;;;;3.85;1.85;;;;;;;;;;5032993;28;20080;-76
2023/10/05 02:17:34;;;;;;;3.05;1.33;;;;;;;;;;5032809;28;20053;-76
2023/10/05 02:20:08;;;;;;;3.97;1.30;;;;;;;;;;5033071;28;20064;-76
2023/10/05 02:22:35;;;;;;;3.25;1.88;;;;;;;;;;5032206;28;20052;-76
2023/10/05 02:25:07;;;;;;;5.22;1.40;;;;;;;;;;5033052;28;20049;-76
2023/10/05 02:27:42;;;;;;;7.55;2.28;;;;;;;;;;5030885;28;20062;-76
2023/10/05 02:30:11;;;;;;;3.33;1.58;;;;;;;;;;5012683;28;20049;-76
2023/10/05 02:32:39;;;;;;;;;;;;;;;;;;5014334;28;20391;-76
2023/10/05 02:35:18;;;;;;;5.15;1.50;;;;;;;;;;5012990;28;19921;-76
2023/10/05 02:37:47;;;;;;;3.75;1.65;;;;;;;;;;5027696;28;20398;-77
2023/10/05 02:40:15;;;;;;;5.13;1.95;;;;;;;;;;5026507;28;20049;-76
2023/10/05 02:42:43;;;;;;;4.53;2.22;;;;;;;;;;5012686;28;20050;-76
2023/10/05 02:45:12;;;;;;;4.20;1.63;;;;;;;;;;5012340;28;20491;-76
2023/10/05 02:47:39;;;;;;;2.20;1.27;;;;;;;;;;5012834;28;20499;-75
2023/10/05 02:50:06;;;;;;;5.47;2.10;;;;;;;;;;5016013;28;20052;-76
2023/10/05 02:52:33;;;;;;;5.38;1.50;;;;;;;;;;5032387;28;20060;-76
2023/10/05 02:55:00;;;;;;;5.05;1.95;;;;;;;;;;5032171;28;20057;-76
2023/10/05 02:57:27;;;;;;;3.30;1.80;;;;;;;;;;5032294;28;20061;-76
2023/10/05 02:59:54;;;;;;;7.50;1.88;;;;;;;;;;5015181;28;20058;-76
2023/10/05 03:02:23;;;;;;;4.13;1.90;;;;;;;;;;5012699;28;20411;-76
2023/10/05 03:04:57;;;;;;;3.17;1.23;;;;;;;;;;5012763;28;20057;-76
2023/10/05 03:07:25;;;;;;;7.55;1.75;;;;;;;;;;5012595;28;20061;-76
2023/10/05 03:09:58;;;;;;;4.07;2.00;;;;;;;;;;5012955;28;20069;-76
2023/10/05 03:12:25;;;;;;;4.47;1.80;;;;;;;;;;5032610;28;20398;-77
2023/10/05 03:14:54;;;;;;;3.63;1.50;;;;;;;;;;5021299;28;20054;-76
2023/10/05 03:17:26;;;;;;;3.35;1.38;;;;;;;;;;5016229;28;20050;-76
2023/10/05 03:19:53;;;;;;;4.97;1.33;;;;;;;;;;5015829;28;20411;-76
2023/10/05 03:22:23;;;;;;;7.50;2.35;;;;;;;;;;5016383;28;20399;-77
2023/10/05 03:24:50;;;;;;;4.03;1.40;;;;;;;;;;5026117;28;20053;-76
2023/10/05 03:27:18;;;;;;;2.30;1.13;;;;;;;;;;5018144;28;20463;-76
2023/10/05 03:29:45;;;;;;;3.75;1.35;;;;;;;;;;5016178;28;20056;-76
2023/10/05 03:32:14;;;;;;;3.90;1.15;;;;;;;;;;5015953;28;20054;-76
2023/10/05 03:34:46;;;;;;;2.87;1.50;;;;;;;;;;5021318;28;20076;-75
2023/10/05 03:37:13;;;;;;;3.58;1.75;;;;;;;;;;5024303;28;20077;-76
2023/10/05 03:39:49;;;;;;;2.92;1.30;;;;;;;;;;5015208;28;20061;-76
2023/10/05 03:42:16;;;;;;;2.72;1.35;;;;;;;;;;5015991;28;20050;-76
2023/10/05 03:44:42;;;;;;;4.22;1.65;;;;;;;;;;5015447;28;20080;-76
2023/10/05 03:47:11;;;;;;;4.90;1.55;;;;;;;;;;5015733;28;20058;-76
2023/10/05 03:49:37;;;;;;;3.78;1.75;;;;;;;;;;5025941;28;20053;-76
2023/10/05 03:52:07;;;;;;;3.03;1.23;;;;;;;;;;5035198;28;20080;-76
2023/10/05 03:54:34;;;;;;;7.22;1.70;;;;;;;;;;5027490;28;20057;-76
2023/10/05 03:57:10;;;;;;;3.30;1.55;;;;;;;;;;5015388;28;20054;-76
2023/10/05 03:59:37;;;;;;;2.83;1.05;;;;;;;;;;5015793;28;20054;-76
2023/10/05 04:02:05;;;;;;;2.60;1.55;;;;;;;;;;5015502;28;20050;-75
2023/10/05 04:04:34;;;;;;;3.38;1.17;;;;;;;;;;5016734;28;20058;-76
2023/10/05 04:07:01;;;;;;;6.28;1.95;;;;;;;;;;5015188;28;20054;-75
2023/10/05 04:09:30;;;;;;;3.75;1.48;;;;;;;;;;5015203;28;20061;-75
2023/10/05 04:11:57;;;;;;;5.20;2.10;;;;;;;;;;5020837;28;20045;-76
2023/10/05 04:14:26;;;;;;;3.75;1.80;;;;;;;;;;5023760;28;20057;-76
2023/10/05 04:16:53;;;;;;;3.17;1.20;;;;;;;;;;5015230;28;20499;-76
2023/10/05 04:19:20;;;;;;;4.25;1.70;;;;;;;;;;5015170;28;20431;-76
2023/10/05 04:21:47;;;;;;;4.07;1.88;;;;;;;;;;5014986;28;20072;-76
2023/10/05 04:24:14;;;;;;;6.40;1.90;;;;;;;;;;5022175;28;20050;-76
2023/10/05 04:26:45;;;;;;;4.88;2.08;;;;;;;;;;5022028;28;20371;-75
2023/10/05 04:29:14;;;;;;;3.83;1.83;;;;;;;;;;5014853;28;20057;-76
2023/10/05 04:31:41;;;;;;;3.50;1.23;;;;;;;;;;5014656;28;20073;-75
2023/10/05 04:34:12;;;;;;;4.18;1.92;;;;;;;;;;5021884;28;20480;-75
2023/10/05 04:36:39;;;;;;;5.13;1.90;;;;;;;;;;5034624;28;20076;-76
2023/10/05 04:39:06;;;;;;;3.08;1.42;;;;;;;;;;5034489;28;20053;-76
2023/10/05 04:41:35;;;;;;;4.45;1.38;;;;;;;;;;5034353;28;20060;-75
2023/10/05 04:44:06;;;;;;;6.75;2.20;;;;;;;;;;5025286;28;20065;-76
2023/10/05 04:46:33;;;;;;;8.02;2.13;;;;;;;;;;5014811;28;20490;-76
2023/10/05 04:49:08;;;;;;;3.65;1.50;;;;;;;;;;5014759;28;20054;-75
2023/10/05 04:51:36;;;;;;;3.75;1.88;;;;;;;;;;5025110;28;20049;-75
2023/10/05 04:54:03;;;;;;;6.78;2.00;;;;;;;;;;5024360;28;20061;-75
2023/10/05 04:59:24;;;;;;;5.57;2.95;;;;;;;;;;5016978;28;20056;-75
2023/10/05 05:01:59;;;;;;;3.70;1.60;;;;;;;;;;5021628;28;20080;-76
2023/10/05 05:04:52;;;;;;;9.48;2.38;;;;;;;;;;5026304;28;20045;-75
2023/10/05 05:07:21;;;;;;;7.40;1.80;;;;;;;;;;5029408;28;20060;-75
2023/10/05 05:09:50;;;;;;;4.55;1.63;;;;;;;;;;5019363;28;20057;-75
2023/10/05 05:12:17;;;;;;;2.97;1.55;;;;;;;;;;5036738;28;20056;-75
2023/10/05 05:14:46;;;;;;;4.07;1.45;;;;;;;;;;5014836;28;20057;-75
2023/10/05 05:17:13;;;;;;;5.17;1.67;;;;;;;;;;5028055;28;20135;-73
2023/10/05 05:19:40;;;;;;;6.75;2.63;;;;;;;;;;5030551;28;20484;-73
2023/10/05 05:22:08;;;;;;;6.88;1.88;;;;;;;;;;5013916;28;20446;-73
2023/10/05 05:24:35;;;;;;;2.15;1.30;;;;;;;;;;5013135;28;20405;-76
2023/10/05 05:27:04;;;;;;;8.10;2.15;;;;;;;;;;5016583;28;20398;-76
2023/10/05 05:29:32;;;;;;;5.32;2.58;;;;;;;;;;5006744;28;20045;-76
2023/10/05 05:32:07;;;;;;;7.00;1.88;;;;;;;;;;5029295;28;20054;-75
2023/10/05 05:34:34;;;;;;;4.45;2.08;;;;;;;;;;5019754;28;20056;-77
2023/10/05 05:37:01;;;;;;;3.40;1.67;;;;;;;;;;5025912;28;20046;-76
2023/10/05 05:39:27;;;;;;;11.55;1.83;;;;;;;;;;5014197;28;20403;-76
2023/10/05 05:41:59;;;;;;;4.25;1.52;;;;;;;;;;5022447;28;20402;-76
2023/10/05 05:44:28;;;;;;;5.25;2.08;;;;;;;;;;5020743;28;20057;-76
2023/10/05 05:46:59;;;;;;;5.47;1.90;;;;;;;;;;5021901;28;20045;-75
2023/10/05 05:49:30;;;;;;;5.68;1.60;;;;;;;;;;5024974;28;20057;-76
2023/10/05 05:51:58;;;;;;;4.18;1.60;;;;;;;;;;5023442;28;20065;-75
2023/10/05 05:54:29;;;;;;;7.45;1.70;;;;;;;;;;5021646;28;20513;-76
2023/10/05 05:56:57;;;;;;;3.65;1.83;;;;;;;;;;5017383;28;20049;-76
2023/10/05 05:59:23;;;;;;;6.30;1.67;;;;;;;;;;5026577;28;20057;-76
2023/10/05 06:01:50;;;;;;;4.00;1.63;;;;;;;;;;5024340;28;20064;-76
2023/10/05 06:04:17;;;;;;;7.70;2.30;;;;;;;;;;5029668;28;20052;-76
2023/10/05 06:06:48;;;;;;;6.32;2.35;;;;;;;;;;5030403;28;20056;-75
2023/10/05 06:09:19;;;;;;;2.75;1.35;;;;;;;;;;5015593;28;20054;-76
2023/10/05 06:11:48;;;;;;;4.15;2.42;;;;;;;;;;5022026;28;20071;-76
2023/10/05 06:14:15;;;;;;;4.63;1.95;;;;;;;;;;5024814;28;20360;-74
2023/10/05 06:16:42;;;;;;;3.88;1.80;;;;;;;;;;5012207;28;20495;-75
2023/10/05 06:19:09;;;;;;;3.10;1.92;;;;;;;;;;5018427;28;20057;-75
2023/10/05 06:21:35;;;;;;;5.85;1.83;;;;;;;;;;5018333;28;20073;-74
2023/10/05 06:24:05;;;;;;;5.93;1.75;;;;;;;;;;5017936;28;20486;-74
2023/10/05 06:26:32;;;;;;;;;;;;;;;;;;5022303;28;20054;-74
2023/10/05 06:28:59;;;;;;;6.38;2.13;;;;;;;;;;5012314;28;19925;-74
2023/10/05 06:31:27;;;;;;;2.55;1.35;;;;;;;;;;5028792;28;20065;-74
2023/10/05 06:33:55;;;;;;;5.32;1.58;;;;;;;;;;5018333;28;20054;-73
2023/10/05 06:36:22;;;;;;;3.25;1.73;;;;;;;;;;5019839;28;20046;-74
2023/10/05 06:38:49;;;;;;;6.57;1.63;;;;;;;;;;5032512;28;20061;-74
2023/10/05 06:41:22;;;;;;;3.28;1.38;;;;;;;;;;5032840;28;20057;-73
2023/10/05 06:43:49;;;;;;;2.88;1.40;;;;;;;;;;5013422;28;20501;-75
2023/10/05 06:46:17;;;;;;;3.30;1.65;;;;;;;;;;5012424;28;20050;-75
2023/10/05 06:48:45;;;;;;;5.28;1.85;;;;;;;;;;5016032;28;20062;-73
2023/10/05 06:51:13;;;;;;;5.22;1.80;;;;;;;;;;5015887;28;20499;-74
2023/10/05 06:53:40;;;;;;;4.10;1.40;;;;;;;;;;5017324;28;20054;-74
2023/10/05 06:56:07;;;;;;;3.72;1.58;;;;;;;;;;5016487;28;20060;-74
2023/10/05 06:58:35;;;;;;;2.92;1.63;;;;;;;;;;5016691;28;20061;-74
2023/10/05 07:01:03;;;;;;;7.90;2.08;;;;;;;;;;5016981;28;20050;-74
2023/10/05 07:03:31;;;;;;;5.97;1.90;;;;;;;;;;5016746;28;20145;-74
2023/10/05 07:05:58;;;;;;;3.88;1.52;;;;;;;;;;5016192;28;20519;-74
2023/10/05 07:08:24;;;;;;;4.82;1.63;;;;;;;;;;5016657;28;20397;-74
2023/10/05 07:10:51;;;;;;;3.53;1.75;;;;;;;;;;5021865;28;20497;-74
2023/10/05 07:13:21;;;;;;;5.85;2.30;;;;;;;;;;5023340;28;20050;-74
2023/10/05 07:15:49;;;;;;;3.78;1.58;;;;;;;;;;5016028;28;20054;-74
2023/10/05 07:18:18;;;;;;;8.07;2.28;;;;;;;;;;5026578;28;20414;-74
2023/10/05 07:20:45;;;;;;;5.03;1.77;;;;;;;;;;5031144;28;20064;-75
2023/10/05 07:23:12;;;;;;;3.17;1.50;;;;;;;;;;5016496;28;20097;-74
2023/10/05 07:25:41;;;;;;;2.90;1.33;;;;;;;;;;5016192;28;20056;-74
2023/10/05 07:28:13;;;;;;;3.50;1.92;;;;;;;;;;5017652;28;20072;-74
2023/10/05 07:30:41;;;;;;;3.53;1.65;;;;;;;;;;5016001;28;20061;-74
2023/10/05 07:33:09;;;;;;;3.38;1.85;;;;;;;;;;5015829;28;20060;-74
2023/10/05 07:35:36;;;;;;;4.25;1.55;;;;;;;;;;5016108;28;20049;-74
2023/10/05 07:38:03;;;;;;;3.45;1.45;;;;;;;;;;5016198;28;20054;-74
2023/10/05 07:40:30;;;;;;;6.15;1.85;;;;;;;;;;5015486;28;20499;-74
2023/10/05 07:42:57;;;;;;;7.35;1.95;;;;;;;;;;5022854;28;20128;-75
2023/10/05 07:45:23;;;;;;;5.15;1.90;;;;;;;;;;5035175;28;20050;-74
2023/10/05 07:47:51;;;;;;;3.70;1.80;;;;;;;;;;5035737;28;20057;-74
2023/10/05 07:50:19;;;;;;;2.78;1.40;;;;;;;;;;5035075;28;20049;-75
2023/10/05 07:52:48;;;;;;;3.50;1.20;;;;;;;;;;5034766;28;20053;-74
2023/10/05 07:55:14;;;;;;;4.78;1.95;;;;;;;;;;5035623;28;20054;-75
2023/10/05 07:57:42;;;;;;;2.90;1.67;;;;;;;;;;5030404;28;20054;-75
2023/10/05 08:00:11;;;;;;;2.92;1.45;;;;;;;;;;5015146;28;20076;-75
2023/10/05 08:02:38;;;;;;;;;;;;;;;;;;5021121;28;20398;-75
2023/10/05 08:05:05;;;;;;;3.22;1.35;;;;;;;;;;5034847;28;19925;-75
2023/10/05 08:07:33;;;;;;;3.10;1.27;;;;;;;;;;5034944;28;20053;-75
2023/10/05 08:10:00;;;;;;;4.45;1.67;;;;;;;;;;5032697;28;20517;-75
2023/10/05 08:12:27;;;;;;;3.47;1.90;;;;;;;;;;5034176;28;20064;-74
2023/10/05 08:14:54;;;;;;;6.70;1.95;;;;;;;;;;5015368;28;20490;-74
2023/10/05 08:17:21;;;;;;;2.97;1.60;;;;;;;;;;5017910;28;20053;-74
2023/10/05 08:19:48;;;;;;;3.33;1.70;;;;;;;;;;5022282;28;20084;-74
2023/10/05 08:22:16;;;;;;;5.57;1.63;;;;;;;;;;5014537;28;20116;-74
2023/10/05 08:24:44;;;;;;;3.05;1.58;;;;;;;;;;5014844;28;20049;-75
2023/10/05 08:27:14;;;;;;;2.90;1.63;;;;;;;;;;5014704;28;20065;-74
2023/10/05 08:29:42;;;;;;;3.53;1.60;;;;;;;;;;5030042;28;20064;-74
2023/10/05 08:32:13;;;;;;;4.70;1.75;;;;;;;;;;5034134;28;20053;-74
2023/10/05 08:34:41;;;;;;;5.72;2.03;;;;;;;;;;5034167;28;20049;-74
2023/10/05 08:37:08;;;;;;;5.20;2.22;;;;;;;;;;5034737;28;20057;-74
2023/10/05 08:39:37;;;;;;;4.95;2.00;;;;;;;;;;5018011;28;20049;-74
2023/10/05 08:42:06;;;;;;;4.45;1.70;;;;;;;;;;5015126;28;20057;-74
2023/10/05 08:44:36;;;;;;;4.40;1.63;;;;;;;;;;5026116;28;20053;-74
2023/10/05 08:47:05;;;;;;;6.45;2.20;;;;;;;;;;5033494;28;20061;-74
2023/10/05 08:49:33;;;;;;;4.07;1.47;;;;;;;;;;5034395;28;20402;-75
2023/10/05 08:52:07;;;;;;;3.17;1.30;;;;;;;;;;5034097;28;20057;-75
2023/10/05 08:54:34;;;;;;;4.93;1.30;;;;;;;;;;5034257;28;20053;-74
2023/10/05 08:57:09;;;;;;;3.53;1.40;;;;;;;;;;5017171;28;20053;-74
2023/10/05 08:59:37;;;;;;;3.30;1.70;;;;;;;;;;5021166;28;20076;-75
2023/10/05 09:02:07;;;;;;;5.55;1.65;;;;;;;;;;5033135;28;20057;-74
2023/10/05 09:04:44;;;;;;;4.22;1.77;;;;;;;;;;5034154;28;20060;-74
2023/10/05 09:07:26;;;;;;;3.58;1.48;;;;;;;;;;5033628;28;20083;-75
2023/10/05 09:09:54;;;;;;;4.95;2.08;;;;;;;;;;5030661;28;20069;-74
2023/10/05 09:12:34;;;;;;;4.43;1.85;;;;;;;;;;5033346;28;20053;-75
2023/10/05 09:15:08;;;;;;;5.35;1.55;;;;;;;;;;5019535;28;20050;-74
2023/10/05 09:17:35;;;;;;;4.28;1.20;;;;;;;;;;5015018;28;20054;-74
2023/10/05 09:20:21;;;;;;;2.70;1.50;;;;;;;;;;5033193;28;20049;-74
2023/10/05 09:22:48;;;;;;;4.93;1.52;;;;;;;;;;5033713;28;20053;-75
2023/10/05 09:25:17;;;;;;;3.55;1.00;;;;;;;;;;5033407;28;20057;-74
2023/10/05 09:27:50;;;;;;;4.18;1.67;;;;;;;;;;5033577;28;20065;-75
2023/10/05 09:30:21;;;;;;;4.07;2.00;;;;;;;;;;5021004;28;20057;-74
2023/10/05 09:32:48;;;;;;;3.58;1.40;;;;;;;;;;5013952;28;20411;-75
2023/10/05 09:35:26;;;;;;;3.30;1.52;;;;;;;;;;5013397;28;20049;-74
2023/10/05 09:37:54;;;;;;;2.92;1.40;;;;;;;;;;5013466;28;20065;-75
2023/10/05 09:40:22;;;;;;;6.95;1.65;;;;;;;;;;5028073;28;20062;-74
2023/10/05 09:42:52;;;;;;;3.97;1.88;;;;;;;;;;5033405;28;20378;-75
2023/10/05 09:45:19;;;;;;;;;;;;;;;;;;5031743;28;20065;-75
2023/10/05 09:47:48;;;;;;;4.03;1.38;;;;;;;;;;5032021;28;20309;-74
2023/10/05 09:50:15;;;;;;;3.65;1.40;;;;;;;;;;5018352;28;20479;-75
2023/10/05 09:52:45;;;;;;;3.13;1.40;;;;;;;;;;5012678;28;20403;-74
2023/10/05 09:55:12;;;;;;;5.60;1.63;;;;;;;;;;5013215;28;20080;-75
2023/10/05 09:57:41;;;;;;;4.88;1.15;;;;;;;;;;5012950;28;20062;-75
2023/10/05 10:00:13;;;;;;;4.20;1.58;;;;;;;;;;5021713;28;20060;-74
2023/10/05 10:02:40;;;;;;;4.05;1.30;;;;;;;;;;5032968;28;20057;-75
2023/10/05 10:05:26;;;;;;;3.67;1.40;;;;;;;;;;5032948;28;20069;-74
2023/10/05 10:07:55;;;;;;;9.65;2.55;;;;;;;;;;5032753;28;20049;-75
2023/10/05 10:10:24;;;;;;;3.83;1.33;;;;;;;;;;5031932;28;20065;-75
2023/10/05 10:12:52;;;;;;;2.47;1.38;;;;;;;;;;5032706;28;20492;-74
2023/10/05 10:15:28;;;;;;;4.30;2.37;;;;;;;;;;5019986;28;20156;-75
2023/10/05 10:18:06;;;;;;;8.10;1.45;;;;;;;;;;5020607;28;20849;-74
2023/10/05 10:20:38;;;;;;;4.65;1.50;;;;;;;;;;5032881;28;20073;-75
2023/10/05 10:23:13;;;;;;;3.33;1.20;;;;;;;;;;5032135;28;20521;-74
2023/10/05 10:25:40;;;;;;;2.75;1.20;;;;;;;;;;5032162;28;20441;-74
2023/10/05 10:28:17;;;;;;;6.00;1.70;;;;;;;;;;5014402;28;20068;-74
2023/10/05 10:30:47;;;;;;;5.18;1.50;;;;;;;;;;5012854;28;20077;-75
2023/10/05 10:33:27;;;;;;;5.05;1.40;;;;;;;;;;5013011;28;20065;-75
2023/10/05 10:35:57;;;;;;;4.40;1.52;;;;;;;;;;5012573;28;20045;-75
2023/10/05 10:38:24;;;;;;;4.60;1.38;;;;;;;;;;5013125;28;20050;-75
2023/10/05 10:41:09;;;;;;;3.97;1.85;;;;;;;;;;5012568;28;20065;-75
2023/10/05 10:43:36;;;;;;;6.53;1.60;;;;;;;;;;5015889;28;20053;-75
2023/10/05 10:46:12;;;;;;;3.97;1.05;;;;;;;;;;5032145;28;20402;-74
2023/10/05 10:48:52;;;;;;;3.70;1.30;;;;;;;;;;5032399;28;20083;-74
2023/10/05 10:51:21;;;;;;;7.95;1.80;;;;;;;;;;5032190;28;20049;-75
2023/10/05 10:53:50;;;;;;;3.17;1.37;;;;;;;;;;5026677;28;20490;-75
2023/10/05 10:56:21;;;;;;;;;;;;;;;;;;5013028;28;20664;-74
2023/10/05 10:58:56;;;;;;;3.28;1.55;;;;;;;;;;5013285;28;19929;-74
2023/10/05 11:01:29;;;;;;;4.47;1.55;;;;;;;;;;5012605;28;20056;-75
2023/10/05 11:03:56;;;;;;;5.80;2.10;;;;;;;;;;5012322;28;20057;-74
2023/10/05 11:06:26;;;;;;;3.75;1.25;;;;;;;;;;5012746;28;20167;-75
2023/10/05 11:08:51;;;;;;;4.15;1.65;;;;;;;;;;5012361;28;20058;-75
2023/10/05 11:11:19;;;;;;;4.18;1.52;;;;;;;;;;5012268;28;20105;-75
2023/10/05 11:13:49;;;;;;;2.35;1.10;;;;;;;;;;5015500;28;20050;-75
2023/10/05 11:16:16;;;;;;;2.83;1.52;;;;;;;;;;5031678;28;20486;-74
2023/10/05 11:18:50;;;;;;;3.00;1.50;;;;;;;;;;5031404;28;20057;-74
2023/10/05 11:21:23;;;;;;;3.78;1.45;;;;;;;;;;5031694;28;20056;-75
2023/10/05 11:23:56;;;;;;;3.00;1.42;;;;;;;;;;5031335;28;20057;-75
2023/10/05 11:26:33;;;;;;;4.90;2.05;;;;;;;;;;5032108;28;20053;-75
2023/10/05 11:29:00;;;;;;;6.43;1.33;;;;;;;;;;5030186;28;20058;-74
2023/10/05 11:31:27;;;;;;;3.00;1.30;;;;;;;;;;5031919;28;20053;-75
2023/10/05 11:33:54;;;;;;;5.18;1.73;;;;;;;;;;5033115;28;20518;-74
2023/10/05 11:36:27;;;;;;;2.83;1.20;;;;;;;;;;5035643;28;20050;-75
2023/10/05 11:38:57;;;;;;;4.78;1.00;;;;;;;;;;5031562;28;20054;-75
2023/10/05 11:41:25;;;;;;;2.70;1.10;;;;;;;;;;5015951;28;20050;-75
2023/10/05 11:43:53;;;;;;;4.38;1.50;;;;;;;;;;5016015;28;20054;-75
2023/10/05 11:46:24;;;;;;;7.15;1.63;;;;;;;;;;5015601;28;20054;-75
2023/10/05 11:48:55;;;;;;;7.30;1.67;;;;;;;;;;5015857;28;20068;-75
2023/10/05 11:51:26;;;;;;;3.58;1.70;;;;;;;;;;5015795;28;20418;-75
2023/10/05 11:53:55;;;;;;;2.22;0.82;;;;;;;;;;5015459;28;20053;-75
2023/10/05 11:56:30;;;;;;;5.72;1.52;;;;;;;;;;5015380;28;20056;-76
2023/10/05 11:58:59;;;;;;;4.72;1.40;;;;;;;;;;5016671;28;20053;-75
2023/10/05 12:01:26;;;;;;;3.05;1.80;;;;;;;;;;5033766;28;20045;-75
2023/10/05 12:03:55;;;;;;;2.03;0.95;;;;;;;;;;5032900;28;20053;-75
2023/10/05 12:06:25;;;;;;;6.10;1.63;;;;;;;;;;5019877;28;20517;-75
2023/10/05 12:08:53;;;;;;;2.92;1.25;;;;;;;;;;5030120;28;20053;-75
2023/10/05 12:11:24;;;;;;;2.55;1.02;;;;;;;;;;5015343;28;20050;-75
2023/10/05 12:13:56;;;;;;;4.03;1.55;;;;;;;;;;5015455;28;20053;-75
2023/10/05 12:16:24;;;;;;;5.10;1.20;;;;;;;;;;5015242;28;20050;-75
2023/10/05 12:18:51;;;;;;;5.30;1.10;;;;;;;;;;5026828;28;20521;-75
2023/10/05 12:21:18;;;;;;;3.53;1.30;;;;;;;;;;5015010;28;20049;-75
2023/10/05 12:23:45;;;;;;;2.70;0.93;;;;;;;;;;5015343;28;20054;-75
2023/10/05 12:26:12;;;;;;;2.28;1.05;;;;;;;;;;5015228;28;20050;-75
2023/10/05 12:28:41;;;;;;;2.25;0.90;;;;;;;;;;5017133;28;20478;-75
2023/10/05 12:31:09;;;;;;;6.88;1.25;;;;;;;;;;5029934;28;20064;-75
2023/10/05 12:33:36;;;;;;;2.13;1.00;;;;;;;;;;5035077;28;20061;-75
2023/10/05 12:36:07;;;;;;;3.13;1.23;;;;;;;;;;5034296;28;20053;-75
2023/10/05 12:38:35;;;;;;;4.07;1.33;;;;;;;;;;5034121;28;20053;-75
2023/10/05 12:41:12;;;;;;;4.18;1.35;;;;;;;;;;5034123;28;20064;-76
2023/10/05 12:43:42;;;;;;;2.13;1.05;;;;;;;;;;5034316;28;20072;-76
2023/10/05 12:46:10;;;;;;;4.22;1.17;;;;;;;;;;5015696;28;20062;-75
2023/10/05 12:48:37;;;;;;;3.90;1.50;;;;;;;;;;5015953;28;20065;-75
2023/10/05 12:51:05;;;;;;;2.88;1.60;;;;;;;;;;5034585;28;20467;-75
2023/10/05 12:53:32;;;;;;;2.88;1.38;;;;;;;;;;5034571;28;20412;-76
2023/10/05 12:56:01;;;;;;;9.43;1.52;;;;;;;;;;5034506;28;20536;-75
2023/10/05 12:58:28;;;;;;;3.40;1.55;;;;;;;;;;5034811;28;20057;-75
2023/10/05 13:00:56;;;;;;;4.32;1.48;;;;;;;;;;5031968;28;20513;-75
2023/10/05 13:03:25;;;;;;;4.57;1.40;;;;;;;;;;5033661;28;20072;-75
2023/10/05 13:05:52;;;;;;;3.70;1.30;;;;;;;;;;5034669;28;20084;-76
2023/10/05 13:08:20;;;;;;;3.67;1.40;;;;;;;;;;5034626;28;20053;-75
2023/10/05 13:10:48;;;;;;;3.15;1.20;;;;;;;;;;5034726;28;20049;-75
2023/10/05 13:13:18;;;;;;;12.77;1.65;;;;;;;;;;5032965;28;20410;-75
2023/10/05 13:15:45;;;;;;;2.47;1.23;;;;;;;;;;5015302;28;20061;-75
2023/10/05 13:18:17;;;;;;;4.07;1.50;;;;;;;;;;5024816;28;20065;-75
2023/10/05 13:20:45;;;;;;;2.47;1.10;;;;;;;;;;5034647;28;20065;-75
2023/10/05 13:23:12;;;;;;;4.82;1.58;;;;;;;;;;5032927;28;20060;-76
2023/10/05 13:25:40;;;;;;;2.65;1.20;;;;;;;;;;5014799;28;20073;-75
2023/10/05 13:28:10;;;;;;;3.38;1.55;;;;;;;;;;5015574;28;20379;-75
2023/10/05 13:30:41;;;;;;;4.60;1.50;;;;;;;;;;5014963;28;20517;-75
2023/10/05 13:33:13;;;;;;;3.65;1.88;;;;;;;;;;5015075;28;20053;-75
2023/10/05 13:35:42;;;;;;;2.65;1.30;;;;;;;;;;5015454;28;20157;-75
2023/10/05 13:38:12;;;;;;;3.92;1.00;;;;;;;;;;5015770;28;20046;-75
2023/10/05 13:40:40;;;;;;;4.13;1.80;;;;;;;;;;5024487;28;20509;-75
2023/10/05 13:43:07;;;;;;;3.17;1.20;;;;;;;;;;5055273;28;20056;-75
2023/10/05 13:45:34;;;;;;;4.60;1.85;;;;;;;;;;5036005;28;20494;-75
2023/10/05 13:48:02;;;;;;;5.53;1.85;;;;;;;;;;5034817;28;20061;-75
2023/10/05 13:50:29;;;;;;;4.75;2.03;;;;;;;;;;5034898;28;20057;-75
2023/10/05 13:52:58;;;;;;;3.28;1.23;;;;;;;;;;5035490;28;20056;-75
2023/10/05 13:55:25;;;;;;;2.75;1.17;;;;;;;;;;5019543;28;20054;-75
2023/10/05 13:57:54;;;;;;;2.97;1.50;;;;;;;;;;5015872;28;20046;-75
2023/10/05 14:00:24;;;;;;;2.38;1.42;;;;;;;;;;5027896;28;20065;-75
2023/10/05 14:02:51;;;;;;;3.17;1.40;;;;;;;;;;5035897;28;20064;-75
2023/10/05 14:05:20;;;;;;;4.03;1.40;;;;;;;;;;5034979;28;20060;-75
2023/10/05 14:07:51;;;;;;;3.97;1.48;;;;;;;;;;5036791;28;20049;-75
2023/10/05 14:10:21;;;;;;;2.42;1.17;;;;;;;;;;5045093;28;20064;-75
2023/10/05 14:12:48;;;;;;;3.08;1.40;;;;;;;;;;5056830;28;20049;-75
2023/10/05 14:15:19;;;;;;;5.28;1.75;;;;;;;;;;5042021;28;20038;-74
2023/10/05 14:17:47;;;;;;;4.53;2.05;;;;;;;;;;5036211;28;20054;-75
2023/10/05 14:20:14;;;;;;;3.42;1.40;;;;;;;;;;5037823;28;20081;-75
2023/10/05 14:22:42;;;;;;;3.58;1.77;;;;;;;;;;5037060;28;20057;-75
2023/10/05 14:25:17;;;;;;;3.38;1.50;;;;;;;;;;5036708;28;20037;-75
2023/10/05 14:27:45;;;;;;;1.70;1.02;;;;;;;;;;5036711;28;20034;-75
2023/10/05 14:30:16;;;;;;;3.60;1.60;;;;;;;;;;5036926;28;20044;-75
2023/10/05 14:32:44;;;;;;;6.95;2.55;;;;;;;;;;5052354;28;20041;-75
2023/10/05 14:35:15;;;;;;;2.40;1.38;;;;;;;;;;5054257;28;20053;-75
2023/10/05 14:37:43;;;;;;;3.55;1.58;;;;;;;;;;5054827;28;20049;-75
2023/10/05 14:40:15;;;;;;;1.92;1.08;;;;;;;;;;5053521;28;20060;-75
2023/10/05 14:42:43;;;;;;;2.50;1.45;;;;;;;;;;5036181;28;20057;-75
2023/10/05 14:45:14;;;;;;;3.47;1.23;;;;;;;;;;5036424;28;20064;-75
2023/10/05 14:47:41;;;;;;;6.20;2.15;;;;;;;;;;5036470;28;20060;-75
2023/10/05 14:50:11;;;;;;;4.00;1.40;;;;;;;;;;5035961;28;20042;-75
2023/10/05 14:52:39;;;;;;;1.67;1.08;;;;;;;;;;5035527;28;20075;-75
2023/10/05 14:55:06;;;;;;;6.63;1.67;;;;;;;;;;5035803;28;20044;-74
2023/10/05 14:57:33;;;;;;;2.50;1.67;;;;;;;;;;5034501;28;20466;-76
2023/10/05 15:00:00;;;;;;;4.55;1.42;;;;;;;;;;5036001;28;20053;-75
2023/10/05 15:02:30;;;;;;;4.18;1.40;;;;;;;;;;5035051;28;20053;-75